Weather History for Walden-Jackson Cnty AP, Walde, CO

Change the Weather History Date:

Saturday, March 15, 2014

  Actual Average (KSBS) Record (KSBS)
Temperature  
Mean Temperature 24 °F -  
Max Temperature 30 °F 41 °F 59 °F (2013)
Min Temperature 17 °F 15 °F -16 °F (1923)
Degree Days  
Heating Degree Days 42    
Moisture  
Dew Point 18 °F    
Average Humidity 69    
Maximum Humidity 86    
Minimum Humidity 47    
Precipitation  
Precipitation 0.00 in - - ()
Sea Level Pressure  
Sea Level Pressure 30.13 in    
Wind  
Wind Speed 13 mph (WNW)    
Max Wind Speed 25 mph    
Max Gust Speed 33 mph    
Visibility 10 miles    
Events      
Averages and records for this station are not official NWS values.
T = Trace of Precipitation, MM = Missing Value Source: NWS Daily Summary

Daily Weather History Graph

Daily Weather History Graph

Search for Another Location

Airport:

Trip Planner

Search our weather history database for the weather conditions in past years. The results will help you decide how hot, cold, wet, or windy it might be!

Date:

Astronomy

Mar. 15, 2014 Rise Set
Actual Time 7:16 AM MDT 7:11 PM MDT
Civil Twilight 6:49 AM MDT 7:39 PM MDT
Nautical Twilight 6:17 AM MDT 8:11 PM MDT
Astronomical Twilight 5:45 AM MDT 8:43 PM MDT
Moon 6:33 PM MDT (3/15) 6:30 AM MDT (3/15)
Length of Visible Light 12h 49m
Length of Day
11h 55m
Waxing Gibbous, 99% of the Moon is Illuminated
Mar 15
Waxing Gibbous
Mar 16
Full
Mar 23
Last Quarter
Mar 30
New
Apr 7
First Quarter

Hourly Weather History & Observations

Time (MDT) Temp. Windchill Dew Point Humidity Pressure Visibility Wind Dir Wind Speed Gust Speed Precip Events Conditions
12:16 AM 30.2 °F 20.2 °F 12.2 °F 47% 29.98 in 10.0 mi SSW 12.7 mph - N/A   Clear
12:34 AM 30.2 °F 19.8 °F 12.2 °F 47% 29.98 in 10.0 mi SSW 13.8 mph - N/A   Clear
12:56 AM 26.6 °F 16.8 °F 14.0 °F 59% 29.99 in 10.0 mi WNW 10.4 mph 16.1 mph N/A   Clear
1:16 AM 28.4 °F 19.1 °F 14.0 °F 55% 29.98 in 10.0 mi WNW 10.4 mph - N/A   Clear
1:35 AM 30.2 °F 18.9 °F 15.8 °F 55% 29.98 in 10.0 mi West 16.1 mph - N/A   Clear
1:56 AM 30.2 °F 21.9 °F 17.6 °F 60% 29.98 in 10.0 mi West 9.2 mph - N/A   Mostly Cloudy
2:16 AM 30.2 °F 22.6 °F 17.6 °F 60% 29.98 in 10.0 mi WSW 8.1 mph - N/A   Mostly Cloudy
2:35 AM 30.2 °F 22.6 °F 17.6 °F 60% 29.98 in 10.0 mi WSW 8.1 mph - N/A   Mostly Cloudy
2:55 AM 30.2 °F 21.3 °F 17.6 °F 60% 29.98 in 10.0 mi West 10.4 mph - N/A   Scattered Clouds
3:15 AM 30.2 °F 21.3 °F 17.6 °F 60% 29.97 in 10.0 mi SW 10.4 mph 21.9 mph N/A   Overcast
3:36 AM 30.2 °F 20.8 °F 19.4 °F 64% 29.96 in 10.0 mi SW 11.5 mph - N/A   Overcast
3:55 AM 30.2 °F 19.3 °F 21.2 °F 69% 29.95 in 10.0 mi SW 15.0 mph 18.4 mph N/A   Mostly Cloudy
4:16 AM 28.4 °F 18.5 °F 23.0 °F 80% 29.95 in 10.0 mi SW 11.5 mph - N/A   Mostly Cloudy
4:35 AM 28.4 °F 23.3 °F 23.0 °F 80% 29.96 in 10.0 mi SSW 4.6 mph - N/A   Mostly Cloudy
4:56 AM 28.4 °F 19.7 °F 23.0 °F 80% 29.96 in 10.0 mi SSW 9.2 mph - N/A   Mostly Cloudy
5:16 AM 24.8 °F 16.9 °F 21.2 °F 86% 29.97 in 10.0 mi SW 6.9 mph - N/A   Scattered Clouds
5:36 AM 26.6 °F 22.6 °F 23.0 °F 86% 29.98 in 10.0 mi SSW 3.5 mph - N/A   Mostly Cloudy
5:56 AM 26.6 °F 21.2 °F 23.0 °F 86% 29.98 in 10.0 mi SSW 4.6 mph - N/A   Mostly Cloudy
6:16 AM 28.4 °F 17.5 °F 21.2 °F 74% 29.98 in 10.0 mi West 13.8 mph - N/A   Scattered Clouds
6:36 AM 28.4 °F 18.5 °F 19.4 °F 69% 29.98 in 10.0 mi West 11.5 mph - N/A   Scattered Clouds
6:55 AM 28.4 °F 18.0 °F 19.4 °F 69% 29.98 in 10.0 mi West 12.7 mph 18.4 mph N/A   Clear
7:16 AM 28.4 °F 20.4 °F 17.6 °F 64% 30.00 in 10.0 mi West 8.1 mph - N/A   Scattered Clouds
7:36 AM 28.4 °F 19.1 °F 19.4 °F 69% 30.01 in 10.0 mi West 10.4 mph - N/A   Overcast
7:56 AM 28.4 °F 16.6 °F 19.4 °F 69% 30.02 in 10.0 mi West 16.1 mph 19.6 mph N/A   Overcast
8:16 AM 28.4 °F 18.0 °F 19.4 °F 69% 30.02 in 10.0 mi West 12.7 mph - N/A   Scattered Clouds
8:36 AM 30.2 °F 17.4 °F 19.4 °F 64% 30.02 in 10.0 mi West 20.7 mph 27.6 mph N/A   Clear
8:56 AM 28.4 °F 18.0 °F 19.4 °F 69% 30.03 in 10.0 mi West 12.7 mph - N/A   Clear
9:16 AM 30.2 °F 18.5 °F 17.6 °F 60% 30.04 in 10.0 mi WNW 17.3 mph - N/A   Scattered Clouds
9:36 AM 30.2 °F 18.9 °F 19.4 °F 64% 30.06 in 10.0 mi West 16.1 mph 21.9 mph N/A   Scattered Clouds
9:56 AM 28.4 °F 18.5 °F 21.2 °F 74% 30.06 in 10.0 mi West 11.5 mph - N/A   Scattered Clouds
10:16 AM 30.2 °F 19.8 °F 19.4 °F 64% 30.07 in 10.0 mi West 13.8 mph - N/A   Scattered Clouds
10:36 AM 30.2 °F 17.8 °F 19.4 °F 64% 30.07 in 10.0 mi NW 19.6 mph 25.3 mph N/A   Mostly Cloudy
10:56 AM 30.2 °F 18.5 °F 19.4 °F 64% 30.08 in 7.0 mi NW 17.3 mph 21.9 mph N/A   Overcast
11:16 AM 30.2 °F 18.1 °F 17.6 °F 60% 30.09 in 10.0 mi NNW 18.4 mph 32.2 mph N/A   Mostly Cloudy
11:36 AM 30.2 °F 16.2 °F 21.2 °F 69% 30.11 in 5.0 mi NW 25.3 mph 29.9 mph N/A   Overcast
11:55 AM 26.6 °F 12.7 °F 19.4 °F 74% 30.12 in 1.8 mi NW 20.7 mph - N/A   Overcast
12:16 PM 28.4 °F 14.1 °F 19.4 °F 69% 30.13 in 10.0 mi NW 24.2 mph 27.6 mph N/A   Overcast
12:36 PM 28.4 °F 14.4 °F 19.4 °F 69% 30.13 in 10.0 mi NNW 23.0 mph 29.9 mph N/A   Overcast
12:56 PM 30.2 °F 17.4 °F 19.4 °F 64% 30.15 in 10.0 mi NW 20.7 mph - N/A   Overcast
1:16 PM 30.2 °F 18.5 °F 17.6 °F 60% 30.15 in 10.0 mi NW 17.3 mph 24.2 mph N/A   Overcast
1:36 PM 30.2 °F 17.8 °F 17.6 °F 60% 30.16 in 10.0 mi NNW 19.6 mph 26.5 mph N/A   Overcast
1:56 PM 30.2 °F 17.8 °F 17.6 °F 60% 30.16 in 10.0 mi NNW 19.6 mph 27.6 mph N/A   Mostly Cloudy
2:16 PM 30.2 °F 16.8 °F 19.4 °F 64% 30.17 in 10.0 mi NW 23.0 mph 29.9 mph N/A   Scattered Clouds
2:36 PM 30.2 °F 17.1 °F 17.6 °F 60% 30.17 in 10.0 mi NNW 21.9 mph 26.5 mph N/A   Scattered Clouds
2:56 PM 30.2 °F 16.8 °F 17.6 °F 60% 30.18 in 10.0 mi NW 23.0 mph 28.8 mph N/A   Scattered Clouds
3:16 PM 30.2 °F 16.2 °F 19.4 °F 64% 30.20 in 5.0 mi NW 25.3 mph 33.4 mph N/A   Scattered Clouds
3:36 PM 30.2 °F 17.4 °F 19.4 °F 64% 30.20 in 10.0 mi NW 20.7 mph - N/A   Scattered Clouds
3:56 PM 30.2 °F 18.5 °F 19.4 °F 64% 30.20 in 10.0 mi NNW 17.3 mph - N/A   Clear
4:16 PM 28.4 °F 16.2 °F 17.6 °F 64% 30.22 in 10.0 mi NW 17.3 mph 20.7 mph N/A   Mostly Cloudy
4:36 PM 28.4 °F 15.4 °F 21.2 °F 74% 30.21 in 10.0 mi NNW 19.6 mph 25.3 mph N/A   Scattered Clouds
4:54 PM 30.2 °F 18.5 °F 21.2 °F 69% 30.23 in 10.0 mi NW 17.3 mph 21.9 mph N/A   Clear
5:16 PM 30.2 °F 17.8 °F 21.2 °F 69% 30.23 in 10.0 mi NNW 19.6 mph 29.9 mph N/A   Clear
5:35 PM 30.2 °F 18.1 °F 19.4 °F 64% 30.23 in 10.0 mi NW 18.4 mph 23.0 mph N/A   Clear
5:56 PM 30.2 °F 17.1 °F 19.4 °F 64% 30.25 in 10.0 mi NW 21.9 mph 25.3 mph N/A   Clear
6:16 PM 28.4 °F 15.8 °F 17.6 °F 64% 30.27 in 10.0 mi NW 18.4 mph - N/A   Clear
6:36 PM 28.4 °F 18.0 °F 17.6 °F 64% 30.27 in 10.0 mi NW 12.7 mph - N/A   Clear
6:56 PM 28.4 °F 19.7 °F 19.4 °F 69% 30.28 in 10.0 mi West 9.2 mph - N/A   Mostly Cloudy
7:16 PM 24.8 °F 14.6 °F 17.6 °F 74% 30.28 in 10.0 mi WNW 10.4 mph - N/A   Mostly Cloudy
7:34 PM 23.0 °F 11.7 °F 17.6 °F 80% 30.29 in 10.0 mi WNW 11.5 mph - N/A   Scattered Clouds
7:55 PM 23.0 °F 18.4 °F 15.8 °F 74% 30.30 in 10.0 mi WNW 3.5 mph - N/A   Scattered Clouds
8:16 PM 23.0 °F - 15.8 °F 74% 30.30 in 10.0 mi Calm Calm - N/A   Scattered Clouds
8:36 PM 21.2 °F 13.6 °F 15.8 °F 80% 30.31 in 10.0 mi NW 5.8 mph - N/A   Scattered Clouds
8:56 PM 21.2 °F 13.6 °F 14.0 °F 74% 30.31 in 10.0 mi WNW 5.8 mph - N/A   Clear
9:16 PM 21.2 °F 14.9 °F 14.0 °F 74% 30.31 in 10.0 mi West 4.6 mph - N/A   Clear
9:36 PM 21.2 °F 14.9 °F 14.0 °F 74% 30.32 in 10.0 mi SW 4.6 mph - N/A   Scattered Clouds
9:55 PM 21.2 °F - 15.8 °F 80% 30.33 in 10.0 mi Calm Calm - N/A   Mostly Cloudy
10:14 PM 21.2 °F 16.4 °F 15.8 °F 80% 30.32 in 10.0 mi SSE 3.5 mph - N/A   Mostly Cloudy
10:36 PM 19.4 °F 12.8 °F 15.8 °F 86% 30.33 in 10.0 mi ESE 4.6 mph - N/A   Scattered Clouds
10:56 PM 19.4 °F 12.8 °F 15.8 °F 86% 30.33 in 10.0 mi ESE 4.6 mph - N/A   Clear
11:15 PM 17.6 °F 7.3 °F 14.0 °F 86% 30.34 in 10.0 mi SE 8.1 mph - N/A   Clear
11:35 PM 17.6 °F 7.3 °F 14.0 °F 86% 30.33 in 10.0 mi SE 8.1 mph - N/A   Clear
11:56 PM 17.6 °F 7.3 °F 12.2 °F 79% 30.34 in 10.0 mi SE 8.1 mph - N/A   Clear